Altus Air Force Base
KLTS : now visible

Aeroporto :











RITROVATECI SU...

 
LOGIN :

Iscrizione | Disclaimer

   EN    FR    IT 

 









Sommario :    VFR   VFR Marginale   IFR   IFR Intensivo   IFR Molto Intensivo
Visibilità : 
Base nubi : 
>= 8 km
>= 3000ft
5 / 8 km
1000 / 3000 ft
1500m / 5 km
500 / 1000 ft
800 / 1500m
200 / 500 ft
< 800m
< 200 ft
Simboli :   Temporali  Nebbia  Neve Forte  Precipitazioni Forti  Vento > 20 kt






- Altitudine del aeroporto : 1382 ft


KLTS - Altus Air Force Base

ULTIMO METAR :
  • 200956Z AUTO 02018G23KT 10SM OVC055 05/M06 A3039 RMK AO2 PK WND 02028/33 SLP293 T00501060 $

METARs OBSOLETI :
  • 200856Z AUTO 02017G24KT 10SM OVC050 06/M06 A3037 RMK AO2 PK WND 04026/0759 SLP285 T00551058 52018 $
  • 200756Z AUTO 03018KT 10SM OVC055 06/M06 A3036 RMK AO2 PK WND 02026/38 SLP283 T00591057 $

TAF TAF KLTS
Valido dal 20 a 09 ore il 21 a 15 ore UTC


200900Z 2009/2115 02015G25KT 9999 BKN050 QNH3037INS
BECMG 2014/2015 02020G30KT 9999 BKN012 510003 QNH3048INS
BECMG 2017/2018 03015G20KT 9999 SCT030 510033 QNH3060INS
BECMG 2102/2103 VRB06KT 9999 SKC QNH3065INS TX06/2021Z TNM04/2109Z



MetMap, La meteo Aeronautica in un colpo d'occhio ! - Copyright ORBIFLY Dicembre 2007 - Disclaimer

ORBIFLY MET'MAP TEAM :

Programmazione e sviluppo : Alexandra Zaïnal
Concezione : Baudouin d'Aumeries
Aiuto per la programmazione : Marc-Olivier Méhu
Supporto tecnico e logistico : Manuel Goepfert
Aiuto per la traduzione : Arnaldo La Scala

Contatto : metmap@orbifly.com




FONTI E CREDITI :

   NOAA       Earth
Advisory